METAR Data
IDs: Format: Raw Decoded Include TAF

Data at: 1704 UTC 16 Oct 2021

KF05 161655Z AUTO 27005KT 10SM CLR 19/01 A3045 RMK AO2 T01920011
KF05 161635Z AUTO 27005KT 10SM CLR 18/02 A3045 RMK AO2 T01820020
KF05 161615Z AUTO 28004KT 10SM CLR 17/03 A3045 RMK AO2 T01740026
KF05 161555Z AUTO 29003KT 10SM CLR 17/03 A3045 RMK AO2 T01650031
KF05 161535Z AUTO 00000KT 10SM CLR 15/03 A3045 RMK AO2 T01520032
KF05 161515Z AUTO 35003KT 10SM CLR 14/03 A3045 RMK AO2 T01410031
KF05 161455Z AUTO 00000KT 10SM CLR 13/03 A3044 RMK AO2 T01300033
KF05 161435Z AUTO 32003KT 10SM CLR 12/03 A3044 RMK AO2 T01170032
KF05 161415Z AUTO 33004KT 10SM CLR 10/04 A3043 RMK AO2 T01020041
KF05 161355Z AUTO 32003KT 10SM CLR 09/04 A3042 RMK AO2 T00850039
KF05 161335Z AUTO 31005KT 10SM CLR 07/04 A3041 RMK AO2 T00720035
KF05 161315Z AUTO 30005KT 10SM CLR 06/03 A3041 RMK AO2 T00640031
KF05 161255Z AUTO 30006KT 10SM CLR 06/03 A3040 RMK AO2 T00630030
KF05 161235Z AUTO 30006KT 10SM CLR 07/03 A3040 RMK AO2 T00660030
KF05 161215Z AUTO 30006KT 10SM CLR 07/03 A3040 RMK AO2 T00660031
KF05 161155Z AUTO 29007KT 10SM CLR 07/03 A3039 RMK AO2 T00680033 10099 20059
KF05 161135Z AUTO 30006KT 10SM CLR 07/04 A3038 RMK AO2 T00670035
KF05 161115Z AUTO 30006KT 10SM CLR 07/04 A3038 RMK AO2 T00700036
KF05 161055Z AUTO 30006KT 10SM CLR 07/04 A3038 RMK AO2 T00700037
KF05 161035Z AUTO 30005KT 10SM CLR 07/04 A3038 RMK AO2 T00650039
KF05 161015Z AUTO 29006KT 10SM CLR 06/04 A3037 RMK AO2 T00600041
KF05 160955Z AUTO 26005KT 10SM CLR 06/04 A3037 RMK AO2 T00630036
KF05 160935Z AUTO 23005KT 10SM CLR 06/04 A3036 RMK AO2 T00610037
KF05 160915Z AUTO 31004KT 10SM CLR 06/04 A3036 RMK AO2 T00610037
KF05 160855Z AUTO 28004KT 10SM CLR 06/04 A3036 RMK AO2 T00640037
KF05 160835Z AUTO 32004KT 10SM CLR 07/04 A3035 RMK AO2 T00670039
KF05 160815Z AUTO 25004KT 10SM CLR 07/04 A3036 RMK AO2 T00710040
KF05 160755Z AUTO 28004KT 10SM CLR 08/03 A3036 RMK AO2 T00840033
KF05 160735Z AUTO 34004KT 10SM CLR 10/03 A3036 RMK AO2 T00980032
KF05 160715Z AUTO 35005KT 10SM CLR 09/04 A3035 RMK AO2 T00930035
KF05 160655Z AUTO 35007KT 10SM CLR 09/04 A3035 RMK AO2 T00880037
KF05 160635Z AUTO 35006KT 10SM CLR 09/04 A3035 RMK AO2 T00910038
KF05 160615Z AUTO 35005KT 10SM CLR 10/04 A3035 RMK AO2 T00960038
KF05 160555Z AUTO 36006KT 10SM CLR 09/04 A3034 RMK AO2 T00940042 10191 20094 402170094
KF05 160535Z AUTO 35005KT 10SM CLR 10/04 A3035 RMK AO2 T01000041
KF05 160515Z AUTO 34006KT 10SM CLR 10/04 A3034 RMK AO2 T01020040
KF05 160455Z AUTO 34006KT 10SM CLR 11/04 A3034 RMK AO2 T01100037
KF05 160435Z AUTO 35006KT 10SM CLR 11/04 A3033 RMK AO2 T01080039
KF05 160415Z AUTO 35006KT 10SM CLR 11/04 A3033 RMK AO2 T01100040
KF05 160355Z AUTO 35006KT 10SM CLR 11/04 A3032 RMK AO2 T01130037
KF05 160335Z AUTO 34005KT 10SM CLR 12/04 A3031 RMK AO2 T01190037
KF05 160315Z AUTO 34006KT 10SM CLR 13/04 A3030 RMK AO2 T01250036
KF05 160255Z AUTO 34006KT 10SM CLR 13/03 A3030 RMK AO2 T01320033
KF05 160235Z AUTO 34007KT 10SM CLR 14/03 A3029 RMK AO2 T01410031
KF05 160215Z AUTO 34008KT 10SM CLR 15/03 A3028 RMK AO2 T01450031
KF05 160155Z AUTO 34007KT 10SM CLR 15/03 A3027 RMK AO2 T01480032
KF05 160135Z AUTO 34007KT 10SM CLR 14/05 A3026 RMK AO2 T01420045
KF05 160115Z AUTO 34005KT 10SM CLR 14/05 A3026 RMK AO2 T01410048
KF05 160055Z AUTO 34005KT 10SM CLR 15/05 A3025 RMK AO2 T01490045
KF05 160035Z AUTO 35006KT 10SM CLR 16/04 A3025 RMK AO2 T01580040
KF05 160015Z AUTO 01006KT 10SM CLR 18/02 A3024 RMK AO2 T01790023
KF05 152355Z AUTO 01007KT 10SM CLR 19/02 A3023 RMK AO2 T01920020 10217 20192
KF05 152335Z AUTO 36010G15KT 10SM CLR 20/02 A3022 RMK AO2 T02010019
KF05 152315Z AUTO 36010KT 10SM CLR 21/01 A3022 RMK AO2 T02060013
KF05 152255Z AUTO 01014KT 10SM CLR 21/02 A3022 RMK AO2 T02100017
KF05 152235Z AUTO 36015G19KT 10SM CLR 21/02 A3021 RMK AO2 T02100023
KF05 152215Z AUTO 02011G19KT 10SM CLR 21/02 A3021 RMK AO2 T02130024
KF05 152155Z AUTO 36008G19KT 10SM CLR 22/03 A3021 RMK AO2 T02150028
KF05 152135Z AUTO 36016G20KT 10SM CLR 22/03 A3020 RMK AO2 T02170029
KF05 152115Z AUTO 02012G21KT 10SM CLR 22/03 A3020 RMK AO2 T02160030
KF05 152055Z AUTO 01017G21KT 10SM CLR 22/04 A3020 RMK AO2 T02160036
KF05 152035Z AUTO 01014G21KT 10SM CLR 22/04 A3019 RMK AO2 T02160039
KF05 152015Z AUTO 34014G20KT 10SM CLR 22/04 A3019 RMK AO2 T02170041
KF05 151955Z AUTO 01012G19KT 10SM CLR 21/04 A3019 RMK AO2 T02110039
KF05 151935Z AUTO 35014G23KT 10SM CLR 21/04 A3019 RMK AO2 T02100043
KF05 151915Z AUTO 36017G22KT 10SM CLR 21/04 A3019 RMK AO2 T02090043
KF05 151855Z AUTO 36015G22KT 10SM 21/05 A3019 RMK AO2 T02060048
KF05 151835Z AUTO 36017G23KT 10SM CLR 21/05 A3019 RMK AO2 T02050047
KF05 151815Z AUTO 36016G25KT 10SM CLR 20/05 A3019 RMK AO2 T02030046
KF05 151755Z AUTO 02017G24KT 10SM CLR 20/05 A3019 RMK AO2 T02020045 10202 20130
KF05 151735Z AUTO 01015G23KT 10SM CLR 20/04 A3019 RMK AO2 T01950043
KF05 151715Z AUTO 36019G25KT 10SM CLR 19/04 A3019 RMK AO2 T01900042
KF05 151655Z AUTO 36019G23KT 10SM CLR 19/05 A3019 RMK AO2 T01850045
KF05 151635Z AUTO 01015G24KT 10SM CLR 18/04 A3019 RMK AO2 T01780044
KF05 151615Z AUTO 01019G25KT 10SM CLR 17/04 A3018 RMK AO2 T01710043
KF05 151555Z AUTO 36020G26KT 10SM CLR 17/05 A3017 RMK AO2 T01650046
KF05 151535Z AUTO 36020G26KT 10SM CLR 16/05 A3016 RMK AO2 T01580047
KF05 151515Z AUTO 36021G25KT 10SM CLR 15/05 A3014 RMK AO2 T01500048
KF05 151455Z AUTO 35018G23KT 10SM SCT036 14/05 A3013 RMK AO2 T01380046
KF05 151435Z AUTO 36018G25KT 10SM SCT036 14/05 A3012 RMK AO2 T01360047
KF05 151415Z AUTO 35018G26KT 10SM CLR 13/05 A3011 RMK AO2 T01320048
KF05 151355Z AUTO 34019G23KT 10SM SCT032 13/05 A3008 RMK AO2 T01320054
KF05 151335Z AUTO 35016G22KT 10SM BKN032 13/06 A3008 RMK AO2 T01300056
KF05 151315Z AUTO 35016G21KT 10SM OVC030 14/06 A3006 RMK AO2 T01350063
KF05 151255Z AUTO 35014KT 10SM OVC026 14/07 A3005 RMK AO2 T01390074
KF05 151235Z AUTO 34013G20KT 10SM OVC022 14/08 A3004 RMK AO2 T01410075
KF05 151215Z AUTO 35014KT 10SM OVC020 14/08 A3002 RMK AO2 T01440080
KF05 151155Z AUTO 34014G19KT 10SM OVC018 14/09 A3000 RMK AO2 T01420085 10180 20142
KF05 151135Z AUTO 34014G20KT 10SM OVC018 15/09 A2999 RMK AO2 T01450087
KF05 151115Z AUTO 34013KT 10SM OVC016 15/10 A2996 RMK AO2 T01470096
KF05 151055Z AUTO 34014KT 10SM OVC012 15/11 A2995 RMK AO2 T01500107
KF05 151035Z AUTO 35013G21KT 10SM OVC012 15/11 A2993 RMK AO2 T01500111
KF05 151015Z AUTO 34013KT 10SM OVC010 15/12 A2993 RMK AO2 T01500115
KF05 150955Z AUTO 34012KT 10SM OVC010 15/12 A2991 RMK AO2 T01500115
KF05 150935Z AUTO 34011KT 10SM BKN010 14/11 A2991 RMK AO2 T01430106
KF05 150915Z AUTO 35012G15KT 10SM CLR 15/10 A2989 RMK AO2 T01450103
KF05 150855Z AUTO 35012KT 10SM CLR 15/10 A2989 RMK AO2 T01500102
KF05 150835Z AUTO 33011KT 10SM CLR 16/10 A2989 RMK AO2 T01550103
KF05 150815Z AUTO 34010KT 10SM CLR 16/11 A2989 RMK AO2 T01550107
KF05 150755Z AUTO 33010KT 10SM CLR 16/11 A2989 RMK AO2 T01600110
KF05 150735Z AUTO 33012KT 10SM CLR 16/12 A2988 RMK AO2 T01600115
KF05 150715Z AUTO 01006KT 10SM CLR 16/12 A2986 RMK AO2 T01600120
KF05 150655Z AUTO 01008KT 10SM CLR 17/12 A2986 RMK AO2 T01670121
KF05 150635Z AUTO 02011G15KT 10SM CLR 17/13 A2985 RMK AO2 T01680125
KF05 150615Z AUTO 02010G15KT 10SM CLR 17/13 A2985 RMK AO2 T01720130
KF05 150555Z AUTO 01010KT 10SM CLR 18/16 A2985 RMK AO2 T01810164 10255 20181 402770145
KF05 150535Z AUTO 36007KT 10SM CLR 19/18 A2984 RMK AO2 T01860182
KF05 150515Z AUTO 35005KT 10SM CLR 19/18 A2984 RMK AO2 T01850180